Time,TemperatureF,DewpointF,PressureIn,WindDirection,WindDirectionDegrees,WindSpeedMPH,WindSpeedGustMPH,Humidity,HourlyPrecipIn,Conditions,Clouds,dailyrainin,SoftwareType,DateUTC
2013-08-14 00:06:00,64.1,63.0,29.73,NNW,333,0.0,0.0,97,0.00,,,0.48,weatherlink.com 1.10,2013-08-14 04:06:00,
2013-08-14 00:21:00,64.0,63.0,29.73,NNW,333,0.0,0.0,97,0.00,,,0.48,weatherlink.com 1.10,2013-08-14 04:21:00,
2013-08-14 00:36:00,64.0,63.0,29.72,NNW,333,0.0,1.0,97,0.00,,,0.48,weatherlink.com 1.10,2013-08-14 04:36:00,
2013-08-14 00:51:00,63.6,63.0,29.72,NNW,333,0.0,0.0,97,0.00,,,0.48,weatherlink.com 1.10,2013-08-14 04:51:00,
2013-08-14 01:06:00,63.3,63.0,29.71,NNW,333,0.0,0.0,97,0.00,,,0.48,weatherlink.com 1.10,2013-08-14 05:06:00,
2013-08-14 01:21:00,63.0,62.0,29.71,NNW,333,0.0,0.0,97,0.00,,,0.48,weatherlink.com 1.10,2013-08-14 05:21:00,
2013-08-14 01:36:00,62.3,62.0,29.71,NNW,333,0.0,1.0,97,0.00,,,0.48,weatherlink.com 1.10,2013-08-14 05:36:00,
2013-08-14 01:51:00,62.3,62.0,29.71,NNW,333,0.0,1.0,97,0.00,,,0.48,weatherlink.com 1.10,2013-08-14 05:51:00,
2013-08-14 02:06:00,63.2,62.0,29.71,NNW,333,0.0,1.0,97,0.01,,,0.49,weatherlink.com 1.10,2013-08-14 06:06:00,
2013-08-14 02:21:00,63.0,62.0,29.71,NNW,333,0.0,0.0,97,0.01,,,0.49,weatherlink.com 1.10,2013-08-14 06:21:00,
2013-08-14 02:36:00,62.5,62.0,29.71,NNW,333,0.0,1.0,97,0.01,,,0.49,weatherlink.com 1.10,2013-08-14 06:36:00,
2013-08-14 02:51:00,62.1,61.0,29.72,NNW,333,0.0,1.0,97,0.01,,,0.49,weatherlink.com 1.10,2013-08-14 06:51:00,
2013-08-14 03:06:00,61.7,61.0,29.71,NNW,333,0.0,1.0,97,0.00,,,0.49,weatherlink.com 1.10,2013-08-14 07:06:00,
2013-08-14 03:21:00,61.6,61.0,29.70,NNW,333,0.0,0.0,97,0.00,,,0.49,weatherlink.com 1.10,2013-08-14 07:21:00,
2013-08-14 03:36:00,62.3,62.0,29.70,NNW,333,0.0,1.0,97,0.00,,,0.49,weatherlink.com 1.10,2013-08-14 07:36:00,
2013-08-14 03:51:00,62.3,62.0,29.70,NNW,333,0.0,1.0,98,0.00,,,0.00,weatherlink.com 1.10,2013-08-14 07:51:00,
2013-08-14 04:06:00,64.2,64.0,29.70,West,265,0.0,4.0,98,0.00,,,0.00,weatherlink.com 1.10,2013-08-14 08:06:00,
2013-08-14 04:21:00,65.2,65.0,29.71,SSW,207,0.0,2.0,98,0.00,,,0.00,weatherlink.com 1.10,2013-08-14 08:21:00,
2013-08-14 04:36:00,66.5,66.0,29.71,West,271,1.0,6.0,98,0.00,,,0.00,weatherlink.com 1.10,2013-08-14 08:36:00,
2013-08-14 04:51:00,66.5,66.0,29.72,WNW,284,1.0,5.0,98,0.00,,,0.00,weatherlink.com 1.10,2013-08-14 08:51:00,
2013-08-14 05:06:00,66.3,66.0,29.72,West,263,1.0,4.0,98,0.00,,,0.00,weatherlink.com 1.10,2013-08-14 09:06:00,
2013-08-14 05:21:00,66.1,66.0,29.72,West,281,0.0,4.0,98,0.00,,,0.00,weatherlink.com 1.10,2013-08-14 09:21:00,
2013-08-14 05:37:00,65.8,65.0,29.73,SSW,212,0.0,3.0,98,0.00,,,0.00,weatherlink.com 1.10,2013-08-14 09:37:00,
2013-08-14 05:52:00,65.7,65.0,29.74,West,278,0.0,4.0,97,0.00,,,0.00,weatherlink.com 1.10,2013-08-14 09:52:00,
2013-08-14 06:07:00,65.4,65.0,29.74,NW,313,5.0,6.0,97,0.00,,,0.00,weatherlink.com 1.10,2013-08-14 10:07:00,
2013-08-14 06:22:00,64.8,63.0,29.75,WNW,297,2.0,8.0,95,0.00,,,0.00,weatherlink.com 1.10,2013-08-14 10:22:00,
2013-08-14 06:37:00,64.1,62.0,29.75,NW,323,1.0,4.0,92,0.00,,,0.00,weatherlink.com 1.10,2013-08-14 10:37:00,
2013-08-14 06:52:00,64.1,62.0,29.75,NNW,348,0.0,4.0,92,0.00,,,0.00,weatherlink.com 1.10,2013-08-14 10:52:00,
2013-08-14 07:07:00,63.8,60.0,29.75,NW,312,3.0,6.0,87,0.00,,,0.00,weatherlink.com 1.10,2013-08-14 11:07:00,
2013-08-14 07:22:00,63.9,59.0,29.75,WNW,302,2.0,8.0,83,0.00,,,0.00,weatherlink.com 1.10,2013-08-14 11:22:00,
2013-08-14 07:37:00,64.0,58.0,29.76,WNW,295,2.0,7.0,81,0.00,,,0.00,weatherlink.com 1.10,2013-08-14 11:37:00,
2013-08-14 07:52:00,64.5,58.0,29.75,West,269,4.0,11.0,78,0.00,,,0.00,weatherlink.com 1.10,2013-08-14 11:52:00,
2013-08-14 08:07:00,64.4,58.0,29.76,NNW,341,3.0,9.0,79,0.00,,,0.00,weatherlink.com 1.10,2013-08-14 12:07:00,
2013-08-14 08:22:00,64.5,58.0,29.76,West,278,3.0,8.0,78,0.00,,,0.00,weatherlink.com 1.10,2013-08-14 12:22:00,
2013-08-14 08:37:00,64.5,57.0,29.76,NW,307,5.0,10.0,76,0.00,,,0.00,weatherlink.com 1.10,2013-08-14 12:37:00,
2013-08-14 08:52:00,64.8,56.0,29.76,West,269,3.0,11.0,73,0.00,,,0.00,weatherlink.com 1.10,2013-08-14 12:52:00,
2013-08-14 09:07:00,65.1,57.0,29.76,NW,325,4.0,9.0,74,0.00,,,0.00,weatherlink.com 1.10,2013-08-14 13:07:00,
2013-08-14 09:22:00,66.7,58.0,29.76,NW,313,5.0,8.0,73,0.00,,,0.00,weatherlink.com 1.10,2013-08-14 13:22:00,
2013-08-14 09:37:00,66.7,57.0,29.76,WSW,245,7.0,11.0,72,0.00,,,0.00,weatherlink.com 1.10,2013-08-14 13:37:00,
2013-08-14 09:52:00,67.4,57.0,29.76,West,262,3.0,11.0,70,0.00,,,0.00,weatherlink.com 1.10,2013-08-14 13:52:00,
2013-08-14 10:07:00,67.6,56.0,29.76,WNW,302,5.0,12.0,66,0.00,,,0.00,weatherlink.com 1.10,2013-08-14 14:07:00,
2013-08-14 10:22:00,68.1,57.0,29.76,West,266,10.0,13.0,67,0.00,,,0.00,weatherlink.com 1.10,2013-08-14 14:22:00,
2013-08-14 10:37:00,68.6,57.0,29.76,NNW,334,5.0,12.0,66,0.00,,,0.00,weatherlink.com 1.10,2013-08-14 14:37:00,
2013-08-14 10:52:00,68.9,58.0,29.76,WSW,248,5.0,10.0,68,0.00,,,0.00,weatherlink.com 1.10,2013-08-14 14:52:00,
2013-08-14 11:07:00,68.9,57.0,29.76,NW,321,4.0,11.0,66,0.00,,,0.00,weatherlink.com 1.10,2013-08-14 15:07:00,
2013-08-14 11:22:00,69.0,58.0,29.76,NNW,327,7.0,13.0,68,0.00,,,0.00,weatherlink.com 1.10,2013-08-14 15:22:00,
2013-08-14 11:37:00,69.5,56.0,29.77,NW,326,5.0,12.0,63,0.00,,,0.00,weatherlink.com 1.10,2013-08-14 15:37:00,
2013-08-14 12:07:00,70.2,56.0,29.77,WSW,248,2.0,12.0,62,0.00,,,0.00,weatherlink.com 1.10,2013-08-14 16:07:00,
2013-08-14 12:22:00,70.4,59.0,29.77,NNW,345,4.0,13.0,67,0.00,,,0.00,weatherlink.com 1.10,2013-08-14 16:22:00,
2013-08-14 12:37:00,70.3,57.0,29.77,West,268,4.0,14.0,62,0.00,,,0.00,weatherlink.com 1.10,2013-08-14 16:37:00,
2013-08-14 13:07:00,70.8,58.0,29.78,West,280,6.0,13.0,65,0.00,,,0.00,weatherlink.com 1.10,2013-08-14 17:07:00,
2013-08-14 13:22:00,71.3,57.0,29.78,North,1,7.0,13.0,62,0.00,,,0.00,weatherlink.com 1.10,2013-08-14 17:22:00,
2013-08-14 13:38:00,71.4,58.0,29.77,NW,321,4.0,12.0,62,0.00,,,0.00,weatherlink.com 1.10,2013-08-14 17:38:00,
2013-08-14 13:53:00,71.9,59.0,29.77,WNW,302,2.0,14.0,63,0.00,,,0.00,weatherlink.com 1.10,2013-08-14 17:53:00,
2013-08-14 14:08:00,72.0,57.0,29.77,NNW,337,5.0,15.0,59,0.00,,,0.00,weatherlink.com 1.10,2013-08-14 18:08:00,
2013-08-14 14:23:00,72.4,58.0,29.77,SW,214,6.0,14.0,61,0.00,,,0.00,weatherlink.com 1.10,2013-08-14 18:23:00,
2013-08-14 14:38:00,72.2,57.0,29.77,NW,321,4.0,16.0,60,0.00,,,0.00,weatherlink.com 1.10,2013-08-14 18:38:00,
2013-08-14 14:53:00,72.7,58.0,29.77,West,267,6.0,15.0,60,0.00,,,0.00,weatherlink.com 1.10,2013-08-14 18:53:00,
2013-08-14 15:08:00,73.3,58.0,29.77,NW,305,4.0,11.0,60,0.00,,,0.00,weatherlink.com 1.10,2013-08-14 19:08:00,
2013-08-14 15:23:00,72.9,57.0,29.77,SW,224,4.0,14.0,58,0.00,,,0.00,weatherlink.com 1.10,2013-08-14 19:23:00,
2013-08-14 15:38:00,72.9,58.0,29.78,West,261,6.0,15.0,59,0.00,,,0.00,weatherlink.com 1.10,2013-08-14 19:38:00,
2013-08-14 15:53:00,72.6,56.0,29.78,WNW,287,6.0,15.0,56,0.00,,,0.00,weatherlink.com 1.10,2013-08-14 19:53:00,
2013-08-14 16:08:00,72.3,56.0,29.79,West,259,7.0,14.0,57,0.00,,,0.00,weatherlink.com 1.10,2013-08-14 20:08:00,
2013-08-14 16:38:00,72.6,57.0,29.80,WNW,282,7.0,15.0,59,0.00,,,0.00,weatherlink.com 1.10,2013-08-14 20:38:00,
2013-08-14 16:53:00,72.7,55.0,29.81,NW,316,11.0,13.0,55,0.00,,,0.00,weatherlink.com 1.10,2013-08-14 20:53:00,
2013-08-14 17:08:00,72.5,56.0,29.81,NW,308,6.0,12.0,57,0.00,,,0.00,weatherlink.com 1.10,2013-08-14 21:08:00,
2013-08-14 17:23:00,72.2,55.0,29.82,West,278,5.0,12.0,56,0.00,,,0.00,weatherlink.com 1.10,2013-08-14 21:23:00,
2013-08-14 17:38:00,72.2,56.0,29.81,West,272,5.0,12.0,57,0.00,,,0.00,weatherlink.com 1.10,2013-08-14 21:38:00,
2013-08-14 17:53:00,72.1,56.0,29.82,WNW,302,5.0,10.0,57,0.00,,,0.00,weatherlink.com 1.10,2013-08-14 21:53:00,
2013-08-14 18:08:00,71.6,55.0,29.82,WNW,298,7.0,11.0,57,0.00,,,0.00,weatherlink.com 1.10,2013-08-14 22:08:00,
2013-08-14 18:23:00,71.4,55.0,29.83,WNW,291,4.0,11.0,57,0.00,,,0.00,weatherlink.com 1.10,2013-08-14 22:23:00,
2013-08-14 18:38:00,71.1,55.0,29.83,NW,304,3.0,8.0,58,0.00,,,0.00,weatherlink.com 1.10,2013-08-14 22:38:00,
2013-08-14 18:53:00,70.2,56.0,29.84,NW,304,2.0,9.0,62,0.00,,,0.00,weatherlink.com 1.10,2013-08-14 22:53:00,
2013-08-14 19:08:00,68.9,57.0,29.85,NW,309,1.0,6.0,66,0.00,,,0.00,weatherlink.com 1.10,2013-08-14 23:08:00,
2013-08-14 19:23:00,68.0,57.0,29.86,West,264,1.0,3.0,69,0.00,,,0.00,weatherlink.com 1.10,2013-08-14 23:23:00,
2013-08-14 19:38:00,67.0,57.0,29.87,WNW,282,1.0,3.0,71,0.00,,,0.00,weatherlink.com 1.10,2013-08-14 23:38:00,
2013-08-14 19:53:00,66.1,58.0,29.87,WNW,282,0.0,3.0,75,0.00,,,0.00,weatherlink.com 1.10,2013-08-14 23:53:00,
2013-08-14 20:08:00,64.7,58.0,29.88,WNW,282,1.0,1.0,79,0.00,,,0.00,weatherlink.com 1.10,2013-08-15 00:08:00,
2013-08-14 20:23:00,63.1,58.0,29.89,West,275,0.0,2.0,82,0.00,,,0.00,weatherlink.com 1.10,2013-08-15 00:23:00,
2013-08-14 20:38:00,62.7,58.0,29.89,West,271,3.0,5.0,83,0.00,,,0.00,weatherlink.com 1.10,2013-08-15 00:38:00,
2013-08-14 20:53:00,65.8,57.0,29.90,NW,314,3.0,7.0,73,0.00,,,0.00,weatherlink.com 1.10,2013-08-15 00:53:00,
2013-08-14 21:08:00,67.0,57.0,29.91,WNW,283,1.0,7.0,71,0.00,,,0.00,weatherlink.com 1.10,2013-08-15 01:08:00,
2013-08-14 21:23:00,67.5,57.0,29.92,WNW,293,3.0,7.0,70,0.00,,,0.00,weatherlink.com 1.10,2013-08-15 01:23:00,
2013-08-14 21:38:00,66.9,58.0,29.93,WNW,299,3.0,5.0,72,0.00,,,0.00,weatherlink.com 1.10,2013-08-15 01:38:00,
2013-08-14 21:54:00,66.7,58.0,29.94,NW,308,2.0,6.0,73,0.00,,,0.00,weatherlink.com 1.10,2013-08-15 01:54:00,
2013-08-14 22:09:00,66.6,58.0,29.94,WNW,295,2.0,8.0,74,0.00,,,0.00,weatherlink.com 1.10,2013-08-15 02:09:00,
2013-08-14 22:24:00,66.1,58.0,29.94,West,277,1.0,6.0,75,0.00,,,0.00,weatherlink.com 1.10,2013-08-15 02:24:00,
2013-08-14 22:39:00,66.0,58.0,29.95,WNW,303,2.0,6.0,75,0.00,,,0.00,weatherlink.com 1.10,2013-08-15 02:39:00,
2013-08-14 22:54:00,66.2,58.0,29.96,NW,304,1.0,6.0,74,0.00,,,0.00,weatherlink.com 1.10,2013-08-15 02:54:00,
2013-08-14 23:09:00,66.0,58.0,29.97,WNW,302,1.0,7.0,74,0.00,,,0.00,weatherlink.com 1.10,2013-08-15 03:09:00,
2013-08-14 23:24:00,65.9,57.0,29.96,WNW,298,2.0,8.0,73,0.00,,,0.00,weatherlink.com 1.10,2013-08-15 03:24:00,
2013-08-14 23:39:00,65.7,57.0,29.97,NW,323,2.0,7.0,74,0.00,,,0.00,weatherlink.com 1.10,2013-08-15 03:39:00,
2013-08-14 23:54:00,65.6,57.0,29.98,NNW,340,4.0,8.0,73,0.00,,,0.00,weatherlink.com 1.10,2013-08-15 03:54:00,